sensor_id;sensor_type;location;lat;lon;timestamp;temperature;humidity
65460;DHT22;52058;49.822;6.754;2023-10-08T00:01:03;12.56;99.99
65460;DHT22;52058;49.822;6.754;2023-10-08T00:03:31;12.52;99.99
65460;DHT22;52058;49.822;6.754;2023-10-08T00:06:02;12.48;99.99
65460;DHT22;52058;49.822;6.754;2023-10-08T00:08:31;12.41;99.99
65460;DHT22;52058;49.822;6.754;2023-10-08T00:10:58;12.36;99.99
65460;DHT22;52058;49.822;6.754;2023-10-08T00:13:31;12.31;99.99
65460;DHT22;52058;49.822;6.754;2023-10-08T00:16:02;12.28;99.99
65460;DHT22;52058;49.822;6.754;2023-10-08T00:18:34;12.24;99.99
65460;DHT22;52058;49.822;6.754;2023-10-08T00:21:01;12.21;99.99
65460;DHT22;52058;49.822;6.754;2023-10-08T00:23:41;12.24;99.99
65460;DHT22;52058;49.822;6.754;2023-10-08T00:26:09;12.41;99.99
65460;DHT22;52058;49.822;6.754;2023-10-08T00:28:35;12.41;99.99
65460;DHT22;52058;49.822;6.754;2023-10-08T00:31:04;12.39;99.99
65460;DHT22;52058;49.822;6.754;2023-10-08T00:33:37;12.41;99.99
65460;DHT22;52058;49.822;6.754;2023-10-08T00:36:04;12.36;99.99
65460;DHT22;52058;49.822;6.754;2023-10-08T00:38:42;12.46;99.99
65460;DHT22;52058;49.822;6.754;2023-10-08T00:41:12;12.45;99.99
65460;DHT22;52058;49.822;6.754;2023-10-08T00:43:39;12.36;99.99
65460;DHT22;52058;49.822;6.754;2023-10-08T00:46:08;12.38;99.99
65460;DHT22;52058;49.822;6.754;2023-10-08T00:48:45;12.34;99.99
65460;DHT22;52058;49.822;6.754;2023-10-08T00:51:13;12.32;99.99
65460;DHT22;52058;49.822;6.754;2023-10-08T00:53:52;12.29;99.99
65460;DHT22;52058;49.822;6.754;2023-10-08T00:56:23;12.36;99.99
65460;DHT22;52058;49.822;6.754;2023-10-08T00:58:51;12.35;99.99
65460;DHT22;52058;49.822;6.754;2023-10-08T01:01:21;12.41;99.99
65460;DHT22;52058;49.822;6.754;2023-10-08T01:03:48;12.44;99.99
65460;DHT22;52058;49.822;6.754;2023-10-08T01:06:16;12.46;99.99
65460;DHT22;52058;49.822;6.754;2023-10-08T01:08:46;12.46;99.99
65460;DHT22;52058;49.822;6.754;2023-10-08T01:11:18;12.41;99.99
65460;DHT22;52058;49.822;6.754;2023-10-08T01:13:46;12.34;99.99
65460;DHT22;52058;49.822;6.754;2023-10-08T01:16:14;12.26;99.99
65460;DHT22;52058;49.822;6.754;2023-10-08T01:18:44;12.22;99.99
65460;DHT22;52058;49.822;6.754;2023-10-08T01:21:16;12.15;99.99
65460;DHT22;52058;49.822;6.754;2023-10-08T01:24:00;12.07;99.99
65460;DHT22;52058;49.822;6.754;2023-10-08T01:26:28;11.99;99.99
65460;DHT22;52058;49.822;6.754;2023-10-08T01:28:57;11.94;99.99
65460;DHT22;52058;49.822;6.754;2023-10-08T01:31:27;11.91;99.99
65460;DHT22;52058;49.822;6.754;2023-10-08T01:33:54;11.83;99.99
65460;DHT22;52058;49.822;6.754;2023-10-08T01:36:22;11.77;99.99
65460;DHT22;52058;49.822;6.754;2023-10-08T01:38:49;11.74;99.99
65460;DHT22;52058;49.822;6.754;2023-10-08T01:41:17;11.70;99.99
65460;DHT22;52058;49.822;6.754;2023-10-08T01:43:54;11.65;99.99
65460;DHT22;52058;49.822;6.754;2023-10-08T01:46:21;11.63;99.99
65460;DHT22;52058;49.822;6.754;2023-10-08T01:48:48;11.60;99.99
65460;DHT22;52058;49.822;6.754;2023-10-08T01:51:18;11.62;99.99
65460;DHT22;52058;49.822;6.754;2023-10-08T01:53:50;11.62;99.99
65460;DHT22;52058;49.822;6.754;2023-10-08T01:56:18;11.65;99.99
65460;DHT22;52058;49.822;6.754;2023-10-08T01:58:45;11.60;99.99
65460;DHT22;52058;49.822;6.754;2023-10-08T02:01:12;11.59;99.99
65460;DHT22;52058;49.822;6.754;2023-10-08T02:03:39;11.53;99.99
65460;DHT22;52058;49.822;6.754;2023-10-08T02:06:07;11.49;99.99
65460;DHT22;52058;49.822;6.754;2023-10-08T02:08:34;11.55;99.99
65460;DHT22;52058;49.822;6.754;2023-10-08T02:11:01;11.57;99.99
65460;DHT22;52058;49.822;6.754;2023-10-08T02:13:29;11.56;99.99
65460;DHT22;52058;49.822;6.754;2023-10-08T02:15:56;11.55;99.99
65460;DHT22;52058;49.822;6.754;2023-10-08T02:18:23;11.50;99.99
65460;DHT22;52058;49.822;6.754;2023-10-08T02:20:50;11.47;99.99
65460;DHT22;52058;49.822;6.754;2023-10-08T02:23:18;11.49;99.99
65460;DHT22;52058;49.822;6.754;2023-10-08T02:25:44;11.44;99.99
65460;DHT22;52058;49.822;6.754;2023-10-08T02:28:11;11.40;99.99
65460;DHT22;52058;49.822;6.754;2023-10-08T02:30:42;11.36;99.99
65460;DHT22;52058;49.822;6.754;2023-10-08T02:33:09;11.33;99.99
65460;DHT22;52058;49.822;6.754;2023-10-08T02:35:39;11.30;99.99
65460;DHT22;52058;49.822;6.754;2023-10-08T02:38:08;11.28;99.99
65460;DHT22;52058;49.822;6.754;2023-10-08T02:40:37;11.26;99.99
65460;DHT22;52058;49.822;6.754;2023-10-08T02:43:10;11.22;99.99
65460;DHT22;52058;49.822;6.754;2023-10-08T02:45:37;11.18;99.99
65460;DHT22;52058;49.822;6.754;2023-10-08T02:48:06;11.18;99.99
65460;DHT22;52058;49.822;6.754;2023-10-08T02:50:37;11.14;99.99
65460;DHT22;52058;49.822;6.754;2023-10-08T02:53:04;11.11;99.99
65460;DHT22;52058;49.822;6.754;2023-10-08T02:55:35;11.09;99.99
65460;DHT22;52058;49.822;6.754;2023-10-08T02:58:05;11.05;99.99
65460;DHT22;52058;49.822;6.754;2023-10-08T03:00:36;11.02;99.99
65460;DHT22;52058;49.822;6.754;2023-10-08T03:03:07;10.98;99.99
65460;DHT22;52058;49.822;6.754;2023-10-08T03:05:41;10.92;99.99
65460;DHT22;52058;49.822;6.754;2023-10-08T03:08:09;10.88;99.99
65460;DHT22;52058;49.822;6.754;2023-10-08T03:10:37;10.85;99.99
65460;DHT22;52058;49.822;6.754;2023-10-08T03:13:03;10.85;99.99
65460;DHT22;52058;49.822;6.754;2023-10-08T03:15:31;10.81;99.99
65460;DHT22;52058;49.822;6.754;2023-10-08T03:18:13;10.79;99.99
65460;DHT22;52058;49.822;6.754;2023-10-08T03:20:41;10.77;99.99
65460;DHT22;52058;49.822;6.754;2023-10-08T03:23:12;10.74;99.99
65460;DHT22;52058;49.822;6.754;2023-10-08T03:25:50;10.70;99.99
65460;DHT22;52058;49.822;6.754;2023-10-08T03:28:22;10.65;99.99
65460;DHT22;52058;49.822;6.754;2023-10-08T03:30:50;10.65;99.99
65460;DHT22;52058;49.822;6.754;2023-10-08T03:33:22;10.61;99.99
65460;DHT22;52058;49.822;6.754;2023-10-08T03:35:50;10.57;99.99
65460;DHT22;52058;49.822;6.754;2023-10-08T03:38:19;10.53;99.99
65460;DHT22;52058;49.822;6.754;2023-10-08T03:40:53;10.51;99.99
65460;DHT22;52058;49.822;6.754;2023-10-08T03:43:22;10.48;99.99
65460;DHT22;52058;49.822;6.754;2023-10-08T03:45:59;10.46;99.99
65460;DHT22;52058;49.822;6.754;2023-10-08T03:48:32;10.43;99.99
65460;DHT22;52058;49.822;6.754;2023-10-08T03:51:04;10.36;99.99
65460;DHT22;52058;49.822;6.754;2023-10-08T03:53:36;10.34;99.99
65460;DHT22;52058;49.822;6.754;2023-10-08T03:56:22;10.27;99.99
65460;DHT22;52058;49.822;6.754;2023-10-08T03:58:50;10.24;99.99
65460;DHT22;52058;49.822;6.754;2023-10-08T04:01:19;10.24;99.99
65460;DHT22;52058;49.822;6.754;2023-10-08T04:03:48;10.23;99.99
65460;DHT22;52058;49.822;6.754;2023-10-08T04:06:24;10.24;99.99
65460;DHT22;52058;49.822;6.754;2023-10-08T04:08:56;10.26;99.99
65460;DHT22;52058;49.822;6.754;2023-10-08T04:11:37;10.29;99.99
65460;DHT22;52058;49.822;6.754;2023-10-08T04:14:17;10.34;99.99
65460;DHT22;52058;49.822;6.754;2023-10-08T04:16:45;10.32;99.99
65460;DHT22;52058;49.822;6.754;2023-10-08T04:19:13;10.32;99.99
65460;DHT22;52058;49.822;6.754;2023-10-08T04:21:43;10.29;99.99
65460;DHT22;52058;49.822;6.754;2023-10-08T04:24:11;10.24;99.99
65460;DHT22;52058;49.822;6.754;2023-10-08T04:26:40;10.21;99.99
65460;DHT22;52058;49.822;6.754;2023-10-08T04:29:07;10.20;99.99
65460;DHT22;52058;49.822;6.754;2023-10-08T04:31:35;10.21;99.99
65460;DHT22;52058;49.822;6.754;2023-10-08T04:34:03;10.21;99.99
65460;DHT22;52058;49.822;6.754;2023-10-08T04:36:36;10.19;99.99
65460;DHT22;52058;49.822;6.754;2023-10-08T04:39:05;10.17;99.99
65460;DHT22;52058;49.822;6.754;2023-10-08T04:41:39;10.24;99.99
65460;DHT22;52058;49.822;6.754;2023-10-08T04:44:08;10.26;99.99
65460;DHT22;52058;49.822;6.754;2023-10-08T04:46:40;10.21;99.99
65460;DHT22;52058;49.822;6.754;2023-10-08T04:49:13;10.19;99.99
65460;DHT22;52058;49.822;6.754;2023-10-08T04:51:53;10.16;99.99
65460;DHT22;52058;49.822;6.754;2023-10-08T04:54:23;10.12;99.99
65460;DHT22;52058;49.822;6.754;2023-10-08T04:56:50;10.09;99.99
65460;DHT22;52058;49.822;6.754;2023-10-08T04:59:18;10.05;99.99
65460;DHT22;52058;49.822;6.754;2023-10-08T05:01:48;10.00;99.99
65460;DHT22;52058;49.822;6.754;2023-10-08T05:04:34;10.00;99.99
65460;DHT22;52058;49.822;6.754;2023-10-08T05:07:13;9.99;99.99
65460;DHT22;52058;49.822;6.754;2023-10-08T05:10:06;9.95;99.99
65460;DHT22;52058;49.822;6.754;2023-10-08T05:12:57;9.95;99.99
65460;DHT22;52058;49.822;6.754;2023-10-08T05:15:41;9.92;99.99
65460;DHT22;52058;49.822;6.754;2023-10-08T05:18:12;9.88;99.99
65460;DHT22;52058;49.822;6.754;2023-10-08T05:20:49;9.86;99.99
65460;DHT22;52058;49.822;6.754;2023-10-08T05:23:41;9.86;99.99
65460;DHT22;52058;49.822;6.754;2023-10-08T05:26:43;9.88;99.99
65460;DHT22;52058;49.822;6.754;2023-10-08T05:29:14;9.89;99.99
65460;DHT22;52058;49.822;6.754;2023-10-08T05:32:17;9.88;99.99
65460;DHT22;52058;49.822;6.754;2023-10-08T05:35:03;9.89;99.99
65460;DHT22;52058;49.822;6.754;2023-10-08T05:37:43;9.89;99.99
65460;DHT22;52058;49.822;6.754;2023-10-08T05:40:18;9.89;99.99
65460;DHT22;52058;49.822;6.754;2023-10-08T05:43:06;9.88;99.99
65460;DHT22;52058;49.822;6.754;2023-10-08T05:45:48;9.88;99.99
65460;DHT22;52058;49.822;6.754;2023-10-08T05:48:18;9.86;99.99
65460;DHT22;52058;49.822;6.754;2023-10-08T05:50:52;9.85;99.99
65460;DHT22;52058;49.822;6.754;2023-10-08T05:53:21;9.82;99.99
65460;DHT22;52058;49.822;6.754;2023-10-08T05:56:10;9.81;99.99
65460;DHT22;52058;49.822;6.754;2023-10-08T05:58:52;9.79;99.99
65460;DHT22;52058;49.822;6.754;2023-10-08T06:01:40;9.81;99.99
65460;DHT22;52058;49.822;6.754;2023-10-08T06:04:07;9.81;99.99
65460;DHT22;52058;49.822;6.754;2023-10-08T06:07:07;9.78;99.99
65460;DHT22;52058;49.822;6.754;2023-10-08T06:09:42;9.77;99.99
65460;DHT22;52058;49.822;6.754;2023-10-08T06:12:17;9.77;99.99
65460;DHT22;52058;49.822;6.754;2023-10-08T06:14:55;9.79;99.99
65460;DHT22;52058;49.822;6.754;2023-10-08T06:17:34;9.79;99.99
65460;DHT22;52058;49.822;6.754;2023-10-08T06:20:22;9.79;99.99
65460;DHT22;52058;49.822;6.754;2023-10-08T06:22:51;9.77;99.99
65460;DHT22;52058;49.822;6.754;2023-10-08T06:25:25;9.75;99.99
65460;DHT22;52058;49.822;6.754;2023-10-08T06:27:54;9.77;99.99
65460;DHT22;52058;49.822;6.754;2023-10-08T06:30:23;9.79;99.99
65460;DHT22;52058;49.822;6.754;2023-10-08T06:32:54;9.79;99.99
65460;DHT22;52058;49.822;6.754;2023-10-08T06:35:21;9.81;99.99
65460;DHT22;52058;49.822;6.754;2023-10-08T06:37:51;9.88;99.99
65460;DHT22;52058;49.822;6.754;2023-10-08T06:40:20;9.95;99.99
65460;DHT22;52058;49.822;6.754;2023-10-08T06:43:05;10.03;99.99
65460;DHT22;52058;49.822;6.754;2023-10-08T06:45:40;10.08;99.99
65460;DHT22;52058;49.822;6.754;2023-10-08T06:48:07;10.13;99.99
65460;DHT22;52058;49.822;6.754;2023-10-08T06:50:33;10.16;99.99
65460;DHT22;52058;49.822;6.754;2023-10-08T06:53:01;10.20;99.99
65460;DHT22;52058;49.822;6.754;2023-10-08T06:55:32;10.24;99.99
65460;DHT22;52058;49.822;6.754;2023-10-08T06:57:59;10.27;99.99
65460;DHT22;52058;49.822;6.754;2023-10-08T07:00:27;10.33;99.99
65460;DHT22;52058;49.822;6.754;2023-10-08T07:03:03;10.37;99.99
65460;DHT22;52058;49.822;6.754;2023-10-08T07:05:33;10.41;99.99
65460;DHT22;52058;49.822;6.754;2023-10-08T07:08:01;10.48;99.99
65460;DHT22;52058;49.822;6.754;2023-10-08T07:10:32;10.53;99.99
65460;DHT22;52058;49.822;6.754;2023-10-08T07:12:59;10.58;99.99
65460;DHT22;52058;49.822;6.754;2023-10-08T07:15:29;10.71;99.99
65460;DHT22;52058;49.822;6.754;2023-10-08T07:17:57;10.82;99.99
65460;DHT22;52058;49.822;6.754;2023-10-08T07:20:34;10.92;99.99
65460;DHT22;52058;49.822;6.754;2023-10-08T07:23:04;11.04;99.99
65460;DHT22;52058;49.822;6.754;2023-10-08T07:25:35;11.20;99.99
65460;DHT22;52058;49.822;6.754;2023-10-08T07:28:04;11.28;99.99
65460;DHT22;52058;49.822;6.754;2023-10-08T07:30:39;11.43;99.99
65460;DHT22;52058;49.822;6.754;2023-10-08T07:33:09;11.56;99.99
65460;DHT22;52058;49.822;6.754;2023-10-08T07:35:43;11.65;99.99
65460;DHT22;52058;49.822;6.754;2023-10-08T07:38:16;11.73;99.99
65460;DHT22;52058;49.822;6.754;2023-10-08T07:40:43;11.81;99.99
65460;DHT22;52058;49.822;6.754;2023-10-08T07:43:10;11.88;99.99
65460;DHT22;52058;49.822;6.754;2023-10-08T07:45:40;11.95;99.99
65460;DHT22;52058;49.822;6.754;2023-10-08T07:48:10;12.01;99.99
65460;DHT22;52058;49.822;6.754;2023-10-08T07:50:41;12.10;99.99
65460;DHT22;52058;49.822;6.754;2023-10-08T07:53:08;12.18;99.99
65460;DHT22;52058;49.822;6.754;2023-10-08T07:55:43;12.26;99.99
65460;DHT22;52058;49.822;6.754;2023-10-08T07:58:10;12.34;99.99
65460;DHT22;52058;49.822;6.754;2023-10-08T08:00:36;12.45;99.99
65460;DHT22;52058;49.822;6.754;2023-10-08T08:03:05;12.50;99.99
65460;DHT22;52058;49.822;6.754;2023-10-08T08:05:32;12.65;99.99
65460;DHT22;52058;49.822;6.754;2023-10-08T08:07:59;12.73;99.99
65460;DHT22;52058;49.822;6.754;2023-10-08T08:10:31;12.86;99.99
65460;DHT22;52058;49.822;6.754;2023-10-08T08:13:01;12.97;99.99
65460;DHT22;52058;49.822;6.754;2023-10-08T08:15:31;13.07;99.99
65460;DHT22;52058;49.822;6.754;2023-10-08T08:17:58;13.15;99.99
65460;DHT22;52058;49.822;6.754;2023-10-08T08:20:26;13.27;99.99
65460;DHT22;52058;49.822;6.754;2023-10-08T08:23:04;13.34;99.99
65460;DHT22;52058;49.822;6.754;2023-10-08T08:25:36;13.47;99.99
65460;DHT22;52058;49.822;6.754;2023-10-08T08:28:11;13.54;99.99
65460;DHT22;52058;49.822;6.754;2023-10-08T08:30:42;13.61;99.99
65460;DHT22;52058;49.822;6.754;2023-10-08T08:33:12;13.68;99.99
65460;DHT22;52058;49.822;6.754;2023-10-08T08:35:43;13.78;99.99
65460;DHT22;52058;49.822;6.754;2023-10-08T08:38:11;13.81;99.99
65460;DHT22;52058;49.822;6.754;2023-10-08T08:40:38;13.87;99.99
65460;DHT22;52058;49.822;6.754;2023-10-08T08:43:05;14.00;99.86
65460;DHT22;52058;49.822;6.754;2023-10-08T08:45:33;14.02;99.83
65460;DHT22;52058;49.822;6.754;2023-10-08T08:48:01;14.12;99.76
65460;DHT22;52058;49.822;6.754;2023-10-08T08:50:28;14.12;99.99
65460;DHT22;52058;49.822;6.754;2023-10-08T08:52:56;14.17;99.99
65460;DHT22;52058;49.822;6.754;2023-10-08T08:55:24;14.23;99.99
65460;DHT22;52058;49.822;6.754;2023-10-08T08:57:53;14.31;99.99
65460;DHT22;52058;49.822;6.754;2023-10-08T09:00:20;14.34;99.94
65460;DHT22;52058;49.822;6.754;2023-10-08T09:02:50;14.42;99.95
65460;DHT22;52058;49.822;6.754;2023-10-08T09:05:17;14.48;98.87
65460;DHT22;52058;49.822;6.754;2023-10-08T09:07:57;14.56;99.05
65460;DHT22;52058;49.822;6.754;2023-10-08T09:10:25;14.63;98.96
65460;DHT22;52058;49.822;6.754;2023-10-08T09:12:53;14.67;98.62
65460;DHT22;52058;49.822;6.754;2023-10-08T09:15:23;14.81;97.70
65460;DHT22;52058;49.822;6.754;2023-10-08T09:17:51;14.95;97.92
65460;DHT22;52058;49.822;6.754;2023-10-08T09:20:18;15.00;97.62
65460;DHT22;52058;49.822;6.754;2023-10-08T09:22:46;15.09;96.91
65460;DHT22;52058;49.822;6.754;2023-10-08T09:25:20;15.18;96.95
65460;DHT22;52058;49.822;6.754;2023-10-08T09:27:50;15.22;97.38
65460;DHT22;52058;49.822;6.754;2023-10-08T09:30:18;15.29;96.80
65460;DHT22;52058;49.822;6.754;2023-10-08T09:32:47;15.40;96.55
65460;DHT22;52058;49.822;6.754;2023-10-08T09:35:15;15.51;95.70
65460;DHT22;52058;49.822;6.754;2023-10-08T09:37:43;15.68;95.24
65460;DHT22;52058;49.822;6.754;2023-10-08T09:40:11;15.73;94.64
65460;DHT22;52058;49.822;6.754;2023-10-08T09:42:40;15.88;94.50
65460;DHT22;52058;49.822;6.754;2023-10-08T09:45:09;15.97;94.49
65460;DHT22;52058;49.822;6.754;2023-10-08T09:47:38;16.11;93.67
65460;DHT22;52058;49.822;6.754;2023-10-08T09:50:10;16.18;93.80
65460;DHT22;52058;49.822;6.754;2023-10-08T09:52:42;16.35;94.28
65460;DHT22;52058;49.822;6.754;2023-10-08T09:55:13;16.41;94.23
65460;DHT22;52058;49.822;6.754;2023-10-08T09:57:41;16.51;94.61
65460;DHT22;52058;49.822;6.754;2023-10-08T10:00:08;16.53;93.80
65460;DHT22;52058;49.822;6.754;2023-10-08T10:02:40;16.57;93.43
65460;DHT22;52058;49.822;6.754;2023-10-08T10:05:10;16.65;92.96
65460;DHT22;52058;49.822;6.754;2023-10-08T10:07:37;16.76;92.41
65460;DHT22;52058;49.822;6.754;2023-10-08T10:10:08;16.90;91.29
65460;DHT22;52058;49.822;6.754;2023-10-08T10:12:52;16.97;90.93
65460;DHT22;52058;49.822;6.754;2023-10-08T10:15:20;17.02;89.93
65460;DHT22;52058;49.822;6.754;2023-10-08T10:17:48;17.13;89.53
65460;DHT22;52058;49.822;6.754;2023-10-08T10:20:15;17.36;88.28
65460;DHT22;52058;49.822;6.754;2023-10-08T10:22:42;17.44;88.39
65460;DHT22;52058;49.822;6.754;2023-10-08T10:25:09;17.49;88.38
65460;DHT22;52058;49.822;6.754;2023-10-08T10:27:42;17.71;84.49
65460;DHT22;52058;49.822;6.754;2023-10-08T10:30:31;17.87;85.78
65460;DHT22;52058;49.822;6.754;2023-10-08T10:33:00;18.06;85.01
65460;DHT22;52058;49.822;6.754;2023-10-08T10:35:27;18.04;83.83
65460;DHT22;52058;49.822;6.754;2023-10-08T10:37:54;18.12;83.41
65460;DHT22;52058;49.822;6.754;2023-10-08T10:40:21;18.22;81.80
65460;DHT22;52058;49.822;6.754;2023-10-08T10:42:56;18.30;82.04
65460;DHT22;52058;49.822;6.754;2023-10-08T10:45:22;18.44;80.56
65460;DHT22;52058;49.822;6.754;2023-10-08T10:48:07;18.57;80.07
65460;DHT22;52058;49.822;6.754;2023-10-08T10:50:47;18.54;79.76
65460;DHT22;52058;49.822;6.754;2023-10-08T10:53:34;18.60;81.09
65460;DHT22;52058;49.822;6.754;2023-10-08T10:56:11;18.68;81.20
65460;DHT22;52058;49.822;6.754;2023-10-08T10:58:44;18.78;81.91
65460;DHT22;52058;49.822;6.754;2023-10-08T11:01:11;18.84;81.47
65460;DHT22;52058;49.822;6.754;2023-10-08T11:03:50;18.96;80.83
65460;DHT22;52058;49.822;6.754;2023-10-08T11:06:18;18.96;80.01
65460;DHT22;52058;49.822;6.754;2023-10-08T11:08:49;19.06;80.26
65460;DHT22;52058;49.822;6.754;2023-10-08T11:11:17;19.23;80.12
65460;DHT22;52058;49.822;6.754;2023-10-08T11:13:44;19.19;79.47
65460;DHT22;52058;49.822;6.754;2023-10-08T11:16:17;19.31;79.84
65460;DHT22;52058;49.822;6.754;2023-10-08T11:18:47;19.40;79.86
65460;DHT22;52058;49.822;6.754;2023-10-08T11:21:17;19.47;79.75
65460;DHT22;52058;49.822;6.754;2023-10-08T11:23:50;19.59;78.14
65460;DHT22;52058;49.822;6.754;2023-10-08T11:26:22;19.68;78.74
65460;DHT22;52058;49.822;6.754;2023-10-08T11:28:57;19.75;77.85
65460;DHT22;52058;49.822;6.754;2023-10-08T11:31:27;19.82;78.92
65460;DHT22;52058;49.822;6.754;2023-10-08T11:33:59;19.98;77.85
65460;DHT22;52058;49.822;6.754;2023-10-08T11:36:28;20.02;77.22
65460;DHT22;52058;49.822;6.754;2023-10-08T11:39:09;20.09;77.95
65460;DHT22;52058;49.822;6.754;2023-10-08T11:41:37;20.14;77.62
65460;DHT22;52058;49.822;6.754;2023-10-08T11:44:15;20.29;76.94
65460;DHT22;52058;49.822;6.754;2023-10-08T11:46:45;20.35;76.97
65460;DHT22;52058;49.822;6.754;2023-10-08T11:49:16;20.38;76.57
65460;DHT22;52058;49.822;6.754;2023-10-08T11:51:46;20.50;77.49
65460;DHT22;52058;49.822;6.754;2023-10-08T11:54:12;20.55;77.00
65460;DHT22;52058;49.822;6.754;2023-10-08T11:56:40;20.62;76.79
65460;DHT22;52058;49.822;6.754;2023-10-08T11:59:06;20.67;77.15
65460;DHT22;52058;49.822;6.754;2023-10-08T12:01:34;20.79;77.06
65460;DHT22;52058;49.822;6.754;2023-10-08T12:04:01;20.80;75.98
65460;DHT22;52058;49.822;6.754;2023-10-08T12:06:27;20.90;75.77
65460;DHT22;52058;49.822;6.754;2023-10-08T12:08:57;20.91;76.33
65460;DHT22;52058;49.822;6.754;2023-10-08T12:11:24;20.96;76.38
65460;DHT22;52058;49.822;6.754;2023-10-08T12:13:57;21.07;76.06
65460;DHT22;52058;49.822;6.754;2023-10-08T12:16:24;21.10;75.48
65460;DHT22;52058;49.822;6.754;2023-10-08T12:18:55;21.14;76.45
65460;DHT22;52058;49.822;6.754;2023-10-08T12:21:24;21.18;75.23
65460;DHT22;52058;49.822;6.754;2023-10-08T12:23:51;21.27;75.46
65460;DHT22;52058;49.822;6.754;2023-10-08T12:26:21;21.31;75.83
65460;DHT22;52058;49.822;6.754;2023-10-08T12:28:48;21.46;75.90
65460;DHT22;52058;49.822;6.754;2023-10-08T12:31:15;21.51;75.09
65460;DHT22;52058;49.822;6.754;2023-10-08T12:33:42;21.67;76.17
65460;DHT22;52058;49.822;6.754;2023-10-08T12:36:10;21.71;74.11
65460;DHT22;52058;49.822;6.754;2023-10-08T12:38:38;21.73;74.68
65460;DHT22;52058;49.822;6.754;2023-10-08T12:41:06;21.81;74.10
65460;DHT22;52058;49.822;6.754;2023-10-08T12:43:39;21.97;74.51
65460;DHT22;52058;49.822;6.754;2023-10-08T12:46:08;22.03;73.89
65460;DHT22;52058;49.822;6.754;2023-10-08T12:48:41;22.18;74.60
65460;DHT22;52058;49.822;6.754;2023-10-08T12:51:09;22.33;74.20
65460;DHT22;52058;49.822;6.754;2023-10-08T12:53:37;22.40;73.45
65460;DHT22;52058;49.822;6.754;2023-10-08T12:56:04;22.60;73.08
65460;DHT22;52058;49.822;6.754;2023-10-08T12:58:32;22.94;73.18
65460;DHT22;52058;49.822;6.754;2023-10-08T13:01:05;23.18;71.57
65460;DHT22;52058;49.822;6.754;2023-10-08T13:03:34;23.56;70.84
65460;DHT22;52058;49.822;6.754;2023-10-08T13:06:07;23.88;70.23
65460;DHT22;52058;49.822;6.754;2023-10-08T13:08:36;24.62;69.41
65460;DHT22;52058;49.822;6.754;2023-10-08T13:11:03;25.30;67.16
65460;DHT22;52058;49.822;6.754;2023-10-08T13:13:30;26.32;65.26
65460;DHT22;52058;49.822;6.754;2023-10-08T13:15:57;27.57;61.18
65460;DHT22;52058;49.822;6.754;2023-10-08T13:18:29;29.02;57.21
65460;DHT22;52058;49.822;6.754;2023-10-08T13:20:58;29.83;56.08
65460;DHT22;52058;49.822;6.754;2023-10-08T13:23:26;30.36;55.23
65460;DHT22;52058;49.822;6.754;2023-10-08T13:25:53;30.77;52.89
65460;DHT22;52058;49.822;6.754;2023-10-08T13:28:20;30.74;53.93
65460;DHT22;52058;49.822;6.754;2023-10-08T13:30:48;31.26;53.06
65460;DHT22;52058;49.822;6.754;2023-10-08T13:33:17;31.69;52.09
65460;DHT22;52058;49.822;6.754;2023-10-08T13:35:46;32.18;50.70
65460;DHT22;52058;49.822;6.754;2023-10-08T13:38:15;32.56;50.45
65460;DHT22;52058;49.822;6.754;2023-10-08T13:40:42;32.23;50.39
65460;DHT22;52058;49.822;6.754;2023-10-08T13:43:28;32.71;50.02
65460;DHT22;52058;49.822;6.754;2023-10-08T13:46:00;31.93;49.98
65460;DHT22;52058;49.822;6.754;2023-10-08T13:48:29;32.41;50.32
65460;DHT22;52058;49.822;6.754;2023-10-08T13:50:59;32.25;49.58
65460;DHT22;52058;49.822;6.754;2023-10-08T13:53:26;32.38;50.08
65460;DHT22;52058;49.822;6.754;2023-10-08T13:55:56;32.18;49.79
65460;DHT22;52058;49.822;6.754;2023-10-08T13:58:23;31.69;50.36
65460;DHT22;52058;49.822;6.754;2023-10-08T14:00:50;31.21;51.51
65460;DHT22;52058;49.822;6.754;2023-10-08T14:03:18;31.69;51.19
65460;DHT22;52058;49.822;6.754;2023-10-08T14:05:47;32.06;50.49
65460;DHT22;52058;49.822;6.754;2023-10-08T14:08:17;31.53;50.57
65460;DHT22;52058;49.822;6.754;2023-10-08T14:10:44;31.65;50.59
65460;DHT22;52058;49.822;6.754;2023-10-08T14:13:11;31.81;50.59
65460;DHT22;52058;49.822;6.754;2023-10-08T14:15:37;31.30;51.32
65460;DHT22;52058;49.822;6.754;2023-10-08T14:18:10;31.09;51.71
65460;DHT22;52058;49.822;6.754;2023-10-08T14:20:42;30.54;52.54
65460;DHT22;52058;49.822;6.754;2023-10-08T14:23:12;30.22;53.50
65460;DHT22;52058;49.822;6.754;2023-10-08T14:25:43;30.06;53.54
65460;DHT22;52058;49.822;6.754;2023-10-08T14:28:11;30.17;53.61
65460;DHT22;52058;49.822;6.754;2023-10-08T14:30:48;29.62;55.03
65460;DHT22;52058;49.822;6.754;2023-10-08T14:33:19;29.65;55.61
65460;DHT22;52058;49.822;6.754;2023-10-08T14:35:50;29.23;55.63
65460;DHT22;52058;49.822;6.754;2023-10-08T14:38:39;29.33;56.07
65460;DHT22;52058;49.822;6.754;2023-10-08T14:41:24;29.06;56.79
65460;DHT22;52058;49.822;6.754;2023-10-08T14:44:08;29.04;57.37
65460;DHT22;52058;49.822;6.754;2023-10-08T14:46:36;28.56;58.49
65460;DHT22;52058;49.822;6.754;2023-10-08T14:49:03;27.76;59.59
65460;DHT22;52058;49.822;6.754;2023-10-08T14:51:37;27.40;60.25
65460;DHT22;52058;49.822;6.754;2023-10-08T14:54:06;27.26;60.56
65460;DHT22;52058;49.822;6.754;2023-10-08T14:59:02;26.92;61.24
65460;DHT22;52058;49.822;6.754;2023-10-08T15:01:28;26.48;61.24
65460;DHT22;52058;49.822;6.754;2023-10-08T15:03:58;26.62;62.01
65460;DHT22;52058;49.822;6.754;2023-10-08T15:06:25;26.24;62.44
65460;DHT22;52058;49.822;6.754;2023-10-08T15:08:52;26.57;62.46
65460;DHT22;52058;49.822;6.754;2023-10-08T15:11:18;26.62;61.71
65460;DHT22;52058;49.822;6.754;2023-10-08T15:13:46;26.55;62.32
65460;DHT22;52058;49.822;6.754;2023-10-08T15:16:15;26.39;62.90
65460;DHT22;52058;49.822;6.754;2023-10-08T15:18:43;26.47;62.12
65460;DHT22;52058;49.822;6.754;2023-10-08T15:21:10;26.19;62.61
65460;DHT22;52058;49.822;6.754;2023-10-08T15:23:37;25.81;63.36
65460;DHT22;52058;49.822;6.754;2023-10-08T15:26:03;25.55;64.34
65460;DHT22;52058;49.822;6.754;2023-10-08T15:28:30;25.31;64.56
65460;DHT22;52058;49.822;6.754;2023-10-08T15:30:59;24.91;65.40
65460;DHT22;52058;49.822;6.754;2023-10-08T15:33:26;24.76;65.85
65460;DHT22;52058;49.822;6.754;2023-10-08T15:35:52;24.45;66.86
65460;DHT22;52058;49.822;6.754;2023-10-08T15:38:19;24.38;67.39
65460;DHT22;52058;49.822;6.754;2023-10-08T15:40:45;24.12;67.44
65460;DHT22;52058;49.822;6.754;2023-10-08T15:43:14;23.84;68.57
65460;DHT22;52058;49.822;6.754;2023-10-08T15:45:41;23.69;69.10
65460;DHT22;52058;49.822;6.754;2023-10-08T15:48:11;23.53;69.77
65460;DHT22;52058;49.822;6.754;2023-10-08T15:50:38;23.38;70.38
65460;DHT22;52058;49.822;6.754;2023-10-08T15:53:05;23.13;70.20
65460;DHT22;52058;49.822;6.754;2023-10-08T15:55:32;23.05;71.22
65460;DHT22;52058;49.822;6.754;2023-10-08T15:57:58;22.91;71.85